Time;durP1;ratioP1;P1;durP2;ratioP2;P2;SDS_P1;SDS_P2;PMS_P1;PMS_P2;Temp;Humidity;BMP_temperature;BMP_pressure;BME280_temperature;BME280_humidity;BME280_pressure;Samples;Min_cycle;Max_cycle;Signal;HPM_P1;HPM_P2
2023/10/02 00:01:47;;;;;;;11.55;8.20;;;;;;;15.23;63.47;95400.81;5075059;28;20379;-69
2023/10/02 00:04:16;;;;;;;10.90;7.85;;;;;;;15.10;63.60;95401.94;5070786;28;20478;-69
2023/10/02 00:06:42;;;;;;;10.60;8.13;;;;;;;15.07;63.25;95385.69;5080646;28;20047;-69
2023/10/02 00:09:07;;;;;;;10.88;8.50;;;;;;;15.06;63.05;95391.88;5074228;28;20040;-69
2023/10/02 00:11:35;;;;;;;9.80;7.72;;;;;;;15.10;62.51;95381.00;5092450;28;20036;-69
2023/10/02 00:14:34;;;;;;;9.80;7.82;;;;;;;15.01;62.82;95386.25;5070708;28;20021;-69
2023/10/02 00:17:08;;;;;;;10.32;7.43;;;;;;;15.05;62.48;95382.41;5071160;28;20040;-69
2023/10/02 00:19:39;;;;;;;9.52;7.50;;;;;;;15.01;62.13;95387.06;5072179;28;20016;-69
2023/10/02 00:22:36;;;;;;;10.93;7.20;;;;;;;15.04;61.84;95376.31;5086095;28;20130;-69
2023/10/02 00:25:21;;;;;;;10.00;6.40;;;;;;;15.14;61.04;95392.84;5064115;28;20469;-69
2023/10/02 00:27:51;;;;;;;7.22;6.40;;;;;;;15.04;61.29;95392.00;5071921;28;20056;-69
2023/10/02 00:30:23;;;;;;;9.40;6.30;;;;;;;14.96;61.67;95389.31;5080366;28;20535;-69
2023/10/02 00:32:49;;;;;;;8.52;6.13;;;;;;;15.00;61.69;95390.66;5073835;28;20036;-70
2023/10/02 00:35:14;;;;;;;9.63;6.63;;;;;;;14.91;60.88;95378.44;5070334;28;20415;-69
2023/10/02 00:37:43;;;;;;;9.25;6.10;;;;;;;14.96;61.06;95390.13;5088118;28;20028;-69
2023/10/02 00:40:28;;;;;;;9.50;5.82;;;;;;;14.86;61.12;95370.16;5090487;28;20175;-69
2023/10/02 00:42:55;;;;;;;7.63;5.57;;;;;;;15.11;60.71;95381.84;5079258;28;20528;-69
2023/10/02 00:45:20;;;;;;;6.95;5.55;;;;;;;15.00;61.08;95379.38;5069936;28;20573;-69
2023/10/02 00:47:47;;;;;;;8.82;5.80;;;;;;;15.15;59.88;95381.38;5071767;28;20044;-69
2023/10/02 00:50:24;;;;;;;7.78;5.82;;;;;;;15.12;59.79;95381.69;5081127;28;20028;-69
2023/10/02 00:52:56;;;;;;;8.25;5.75;;;;;;;15.14;60.16;95386.78;5073550;28;20036;-69
2023/10/02 00:55:25;;;;;;;6.45;5.35;;;;;;;15.08;59.73;95388.16;5069979;28;20046;-68
2023/10/02 00:57:52;;;;;;;6.97;5.32;;;;;;;15.11;59.91;95379.22;5073152;28;20071;-69
2023/10/02 01:00:20;;;;;;;6.35;4.88;;;;;;;15.06;60.24;95382.25;5073285;28;20067;-68
2023/10/02 01:02:50;;;;;;;8.55;4.63;;;;;;;15.17;59.86;95384.69;5090013;28;20093;-69
2023/10/02 01:05:21;;;;;;;7.60;5.45;;;;;;;15.10;59.55;95383.63;5073316;28;20027;-68
2023/10/02 01:07:48;;;;;;;8.93;5.30;;;;;;;15.16;59.56;95388.28;5084773;28;20043;-69
2023/10/02 01:10:20;;;;;;;9.57;5.07;;;;;;;15.12;59.58;95380.84;5090025;28;20031;-69
2023/10/02 01:12:49;;;;;;;6.72;5.18;;;;;;;14.97;59.92;95365.59;5090295;28;20067;-69
2023/10/02 01:15:16;;;;;;;6.32;5.32;;;;;;;15.10;59.29;95372.31;5089927;28;20111;-68
2023/10/02 01:17:45;;;;;;;7.05;4.93;;;;;;;15.13;59.14;95375.50;5069605;28;20501;-69
2023/10/02 01:20:19;;;;;;;9.57;5.07;;;;;;;15.01;59.43;95360.91;5037083;28;20043;-70
2023/10/02 01:22:44;;;;;;;8.63;4.47;;;;;;;15.06;59.02;95379.63;5083187;28;20032;-69
2023/10/02 01:25:13;;;;;;;6.82;4.88;;;;;;;15.16;58.37;95364.75;5064027;28;20028;-69
2023/10/02 01:27:47;;;;;;;7.80;4.68;;;;;;;15.13;58.65;95366.81;5069907;28;20227;-69
2023/10/02 01:30:20;;;;;;;8.88;5.40;;;;;;;15.11;58.90;95363.50;5069528;28;20479;-69
2023/10/02 01:35:36;;;;;;;9.45;4.80;;;;;;;15.15;58.27;95370.09;5071036;28;20047;-69
2023/10/02 01:38:15;;;;;;;6.10;4.60;;;;;;;15.12;58.23;95363.34;5075690;28;20029;-69
2023/10/02 01:40:48;;;;;;;7.32;4.65;;;;;;;15.03;58.28;95356.38;5075066;28;20035;-69
2023/10/02 01:43:14;;;;;;;6.20;4.70;;;;;;;15.15;58.16;95368.31;5062235;28;20409;-69
2023/10/02 01:45:43;;;;;;;5.68;4.18;;;;;;;15.31;58.17;95378.19;5070237;28;20028;-69
2023/10/02 01:48:13;;;;;;;6.70;4.50;;;;;;;15.37;57.40;95368.94;5069591;28;20040;-69
2023/10/02 01:50:41;;;;;;;8.07;4.53;;;;;;;15.26;58.15;95383.03;5070421;28;20024;-69
2023/10/02 01:53:07;;;;;;;7.45;4.68;;;;;;;15.15;58.05;95377.94;5075033;28;20074;-68
2023/10/02 01:55:35;;;;;;;6.13;4.63;;;;;;;15.02;58.15;95380.88;5084709;28;20035;-69
2023/10/02 01:58:16;;;;;;;7.15;5.03;;;;;;;15.05;57.75;95377.16;5082474;28;20054;-69
2023/10/02 02:00:45;;;;;;;6.55;4.60;;;;;;;15.20;57.39;95384.41;5071440;28;20044;-69
2023/10/02 02:03:14;;;;;;;6.47;4.28;;;;;;;15.13;57.78;95385.13;5075566;28;20036;-69
2023/10/02 02:05:39;;;;;;;8.32;5.00;;;;;;;15.05;57.73;95388.44;5088564;28;20463;-69
2023/10/02 02:08:21;;;;;;;7.75;4.72;;;;;;;15.02;57.77;95386.13;5079710;28;20028;-69
2023/10/02 02:10:48;;;;;;;6.03;4.50;;;;;;;14.86;58.00;95386.69;5092311;28;20410;-69
2023/10/02 02:13:14;;;;;;;7.45;4.70;;;;;;;14.82;57.63;95361.78;5073195;28;20036;-70
2023/10/02 02:15:45;;;;;;;6.03;4.05;;;;;;;14.80;58.08;95395.09;5089907;28;20028;-68
2023/10/02 02:18:11;;;;;;;7.53;4.35;;;;;;;14.67;58.95;95384.09;5074099;28;20036;-69
2023/10/02 02:20:57;;;;;;;7.50;4.07;;;;;;;14.76;58.50;95383.25;5074579;28;20021;-69
2023/10/02 02:23:24;;;;;;;4.65;3.83;;;;;;;14.70;58.26;95395.06;5092526;28;20490;-69
2023/10/02 02:25:50;;;;;;;7.32;4.03;;;;;;;14.81;57.40;95401.97;5093024;28;20028;-69
2023/10/02 02:28:15;;;;;;;8.13;4.10;;;;;;;14.60;57.86;95407.34;5089115;28;20040;-69
2023/10/02 02:30:40;;;;;;;6.88;3.97;;;;;;;14.56;58.03;95405.13;5079114;28;20024;-69
2023/10/02 02:33:09;;;;;;;7.80;4.20;;;;;;;14.47;57.88;95402.34;5074544;28;20456;-69
2023/10/02 02:35:39;;;;;;;5.72;3.80;;;;;;;14.34;57.91;95380.03;5076515;28;20032;-69
2023/10/02 02:38:16;;;;;;;6.00;4.20;;;;;;;14.56;57.29;95403.34;5076795;28;20110;-69
2023/10/02 02:40:41;;;;;;;7.72;3.90;;;;;;;14.50;56.71;95403.84;5094120;28;20047;-69
2023/10/02 02:43:19;;;;;;;7.80;3.88;;;;;;;14.63;56.64;95408.88;5094542;28;20113;-69
2023/10/02 02:45:45;;;;;;;6.88;3.95;;;;;;;14.65;55.92;95402.50;5077520;28;20031;-69
2023/10/02 02:48:10;;;;;;;6.20;3.90;;;;;;;14.53;56.31;95414.06;5092650;28;20020;-68
2023/10/02 02:50:42;;;;;;;6.22;3.85;;;;;;;14.43;56.32;95414.03;5093765;28;20089;-68
2023/10/02 02:53:30;;;;;;;6.60;3.75;;;;;;;14.37;56.17;95398.06;5094319;28;20040;-68
2023/10/02 02:56:24;;;;;;;8.90;4.05;;;;;;;14.35;56.68;95413.91;5092808;28;20032;-68
2023/10/02 02:58:55;;;;;;;5.93;3.40;;;;;;;14.18;55.70;95415.38;5094090;28;20055;-68
2023/10/02 03:01:24;;;;;;;7.00;3.85;;;;;;;14.23;54.85;95407.94;5092519;28;20067;-68
2023/10/02 03:03:55;;;;;;;7.43;3.60;;;;;;;14.19;54.87;95408.38;5076196;28;20051;-68
2023/10/02 03:06:23;;;;;;;6.18;3.63;;;;;;;14.20;54.89;95407.41;5092354;28;20115;-68
2023/10/02 03:08:51;;;;;;;8.68;3.65;;;;;;;14.06;55.35;95385.09;5092374;28;20032;-68
2023/10/02 03:11:29;;;;;;;5.45;3.50;;;;;;;13.74;56.13;95391.34;5092186;28;20040;-68
2023/10/02 03:14:11;;;;;;;5.45;3.67;;;;;;;13.71;57.11;95412.50;5092436;28;20493;-68
2023/10/02 03:16:37;;;;;;;7.35;3.60;;;;;;;13.59;56.79;95400.47;5092456;28;20032;-68
2023/10/02 03:19:03;;;;;;;6.10;3.85;;;;;;;13.59;57.47;95403.91;5092129;28;20028;-70
2023/10/02 03:21:30;;;;;;;5.93;3.60;;;;;;;13.64;57.27;95409.56;5093239;28;20040;-68
2023/10/02 03:23:59;;;;;;;7.78;3.85;;;;;;;13.70;56.97;95413.44;5075235;28;20025;-68
2023/10/02 03:26:27;;;;;;;7.38;3.55;;;;;;;13.73;57.38;95404.50;5055478;28;20037;-68
2023/10/02 03:29:01;;;;;;;7.25;3.92;;;;;;;13.73;57.75;95409.72;5072502;28;20024;-68
2023/10/02 03:31:51;;;;;;;5.13;3.67;;;;;;;13.65;57.00;95413.03;5064422;28;20052;-68
2023/10/02 03:34:29;;;;;;;8.77;3.33;;;;;;;13.51;56.27;95410.75;5090465;28;20028;-68
2023/10/02 03:37:08;;;;;;;5.90;3.45;;;;;;;13.65;55.62;95413.03;5092077;28;20032;-68
2023/10/02 03:42:22;;;;;;;9.15;3.33;;;;;;;13.68;54.71;95411.91;5079266;28;20047;-68
2023/10/02 03:44:54;;;;;;;7.18;3.50;;;;;;;13.68;53.53;95412.75;5071116;28;20040;-68
2023/10/02 03:47:19;;;;;;;7.10;3.20;;;;;;;13.84;53.41;95410.44;5070934;28;20422;-68
2023/10/02 03:49:44;;;;;;;7.40;3.33;;;;;;;13.75;54.08;95418.28;5072521;28;20029;-69
2023/10/02 03:52:14;;;;;;;6.85;3.30;;;;;;;13.71;53.00;95415.09;5085977;28;20028;-68
2023/10/02 03:54:43;;;;;;;6.63;3.50;;;;;;;13.75;53.52;95418.28;5086345;28;20028;-68
2023/10/02 03:57:10;;;;;;;6.95;3.50;;;;;;;13.70;53.50;95415.22;5102163;28;20430;-68
2023/10/02 03:59:51;;;;;;;5.65;3.22;;;;;;;13.67;53.07;95410.25;5084486;28;20035;-68
2023/10/02 04:02:26;;;;;;;5.72;3.47;;;;;;;13.82;53.23;95409.78;5072020;28;20032;-68
2023/10/02 04:04:51;;;;;;;6.82;3.17;;;;;;;13.61;52.98;95417.66;5072722;28;20016;-68
2023/10/02 04:07:20;;;;;;;6.22;3.10;;;;;;;13.51;52.95;95395.94;5080494;28;20044;-68
2023/10/02 04:09:50;;;;;;;6.60;3.65;;;;;;;13.40;52.58;95377.75;5054589;28;20577;-68
2023/10/02 04:12:17;;;;;;;4.90;3.00;;;;;;;13.56;52.76;95412.00;5090681;28;20032;-68
2023/10/02 04:14:43;;;;;;;8.45;3.25;;;;;;;13.67;52.84;95434.59;5091089;28;20043;-68
2023/10/02 04:17:21;;;;;;;5.88;3.17;;;;;;;13.77;51.53;95432.03;5092484;28;20466;-69
2023/10/02 04:19:49;;;;;;;5.13;2.90;;;;;;;13.67;51.93;95425.94;5076007;28;20398;-68
2023/10/02 04:22:25;;;;;;;5.35;2.88;;;;;;;13.57;51.98;95442.38;5073983;28;20044;-68
2023/10/02 04:24:58;;;;;;;7.05;3.05;;;;;;;13.68;52.38;95433.66;5082900;28;20023;-68
2023/10/02 04:27:28;;;;;;;7.72;2.70;;;;;;;13.77;52.22;95453.75;5071933;28;20032;-68
2023/10/02 04:32:59;;;;;;;5.25;2.65;;;;;;;13.46;53.74;95449.47;5079809;28;20048;-69
2023/10/02 04:38:09;;;;;;;8.30;3.00;;;;;;;13.56;52.51;95450.34;5088893;28;20043;-69
2023/10/02 04:40:44;;;;;;;5.63;2.58;;;;;;;13.55;52.56;95449.50;5084320;28;20201;-68
2023/10/02 04:43:28;;;;;;;6.95;3.13;;;;;;;13.52;52.27;95434.09;5055738;28;20036;-69
2023/10/02 04:46:01;;;;;;;5.00;2.65;;;;;;;13.56;52.09;95452.94;5071040;28;20055;-69
2023/10/02 04:48:38;;;;;;;4.78;2.60;;;;;;;13.59;52.92;95457.91;5084455;28;20520;-69
2023/10/02 04:51:07;;;;;;;4.88;2.65;;;;;;;13.60;52.49;95468.22;5061670;28;20062;-68
2023/10/02 04:53:34;;;;;;;6.18;3.00;;;;;;;13.75;52.52;95447.00;5083744;28;20509;-68
2023/10/02 04:58:57;;;;;;;5.88;2.72;;;;;;;13.81;51.99;95454.28;5077403;28;20409;-69
2023/10/02 05:01:28;;;;;;;5.97;2.72;;;;;;;13.86;51.21;95458.16;5064982;28;20083;-68
2023/10/02 05:04:02;;;;;;;4.38;2.35;;;;;;;14.05;50.90;95473.09;5087436;28;20028;-68
2023/10/02 05:06:44;;;;;;;5.57;2.47;;;;;;;13.98;51.11;95468.50;5068425;28;20067;-68
2023/10/02 05:11:55;;;;;;;6.45;2.97;;;;;;;14.01;50.90;95476.94;5085250;28;20036;-68
2023/10/02 05:14:29;;;;;;;7.93;2.95;;;;;;;14.11;51.17;95474.34;5072503;28;20506;-68
2023/10/02 05:20:01;;;;;;;5.63;3.22;;;;;;;14.16;51.30;95468.72;5089845;28;20128;-69
2023/10/02 05:22:27;;;;;;;5.40;2.50;;;;;;;14.19;50.87;95481.53;5059464;28;20040;-68
2023/10/02 05:25:00;;;;;;;3.95;2.70;;;;;;;14.10;50.26;95472.69;5075118;28;20033;-69
2023/10/02 05:27:31;;;;;;;6.82;2.63;;;;;;;14.16;50.38;95480.00;5082148;28;20027;-69
2023/10/02 05:30:01;;;;;;;5.30;2.53;;;;;;;14.29;49.57;95485.81;5052196;28;20117;-68
2023/10/02 05:32:35;;;;;;;5.88;2.60;;;;;;;14.31;49.87;95490.91;5075749;28;20036;-68
2023/10/02 05:37:42;;;;;;;4.43;2.70;;;;;;;14.21;50.19;95487.44;5082957;28;20173;-68
2023/10/02 05:45:40;;;;;;;5.57;2.53;;;;;;;14.79;48.90;95481.53;5082908;28;20127;-69
2023/10/02 05:48:14;;;;;;;6.03;2.30;;;;;;;14.93;48.65;95491.56;5060555;28;20469;-69
2023/10/02 05:50:45;;;;;;;6.00;2.70;;;;;;;15.81;45.87;95482.66;5079878;28;20025;-69
2023/10/02 05:53:11;;;;;;;4.88;2.80;;;;;;;16.61;44.91;95487.41;5058303;28;20038;-69
2023/10/02 05:58:27;;;;;;;7.00;2.75;;;;;;;18.58;40.57;95495.72;5090261;28;20429;-69
2023/10/02 06:00:53;;;;;;;6.35;2.60;;;;;;;19.41;38.69;95481.72;5087263;28;20067;-69
2023/10/02 06:03:20;;;;;;;5.95;2.60;;;;;;;19.80;37.22;95486.31;5058348;28;20043;-71
2023/10/02 06:06:10;;;;;;;5.50;2.60;;;;;;;20.59;35.71;95481.13;5068568;28;20551;-72
2023/10/02 06:08:33;;;;;;;5.78;2.47;;;;;;;20.88;35.23;95496.31;5084630;28;20119;-69
2023/10/02 06:11:08;;;;;;;4.43;2.30;;;;;;;21.10;34.63;95484.97;5092062;28;20032;-69
2023/10/02 06:13:37;;;;;;;5.10;2.40;;;;;;;21.90;33.02;95485.47;5070643;28;20509;-69
2023/10/02 06:16:03;;;;;;;7.78;2.85;;;;;;;22.43;32.86;95480.97;5085993;28;20047;-69
2023/10/02 06:18:28;;;;;;;5.80;2.55;;;;;;;21.78;32.76;95482.44;5081404;28;20032;-69
2023/10/02 06:21:00;;;;;;;5.72;2.60;;;;;;;22.27;32.30;95488.06;5094053;28;20020;-69
2023/10/02 06:23:29;;;;;;;5.05;2.30;;;;;;;22.75;31.69;95464.63;5069421;28;20422;-69
2023/10/02 06:25:56;;;;;;;6.30;3.00;;;;;;;22.82;31.28;95485.91;5075130;28;20029;-69
2023/10/02 06:28:27;;;;;;;7.43;2.60;;;;;;;23.17;31.62;95488.72;5087807;28;20032;-69
2023/10/02 06:30:54;;;;;;;6.85;2.60;;;;;;;23.23;30.51;95493.28;5091130;28;20482;-69
2023/10/02 06:33:23;;;;;;;6.07;2.92;;;;;;;23.38;30.35;95494.03;5073028;28;20062;-69
2023/10/02 06:36:00;;;;;;;7.57;2.58;;;;;;;24.22;29.82;95500.44;5088052;28;20062;-69
2023/10/02 06:38:31;;;;;;;7.68;2.67;;;;;;;23.73;29.87;95501.28;5088811;28;20051;-69
2023/10/02 06:40:57;;;;;;;5.63;2.70;;;;;;;23.46;29.93;95509.00;5087201;28;20051;-69
2023/10/02 06:43:29;;;;;;;6.28;3.10;;;;;;;22.91;30.49;95510.44;5073536;28;20115;-69
2023/10/02 06:46:13;;;;;;;5.82;2.50;;;;;;;23.10;30.26;95514.38;5082264;28;20078;-69
2023/10/02 06:48:43;;;;;;;5.68;2.70;;;;;;;23.37;30.44;95518.94;5068224;28;20593;-70
2023/10/02 06:51:19;;;;;;;6.57;2.70;;;;;;;23.44;29.73;95512.84;5080405;28;20036;-69
2023/10/02 06:53:44;;;;;;;6.20;2.45;;;;;;;23.35;29.98;95518.28;5085804;28;20115;-69
2023/10/02 06:56:13;;;;;;;4.00;2.30;;;;;;;23.16;30.04;95534.81;5084530;28;20036;-70
2023/10/02 06:58:54;;;;;;;9.85;2.85;;;;;;;23.05;30.56;95530.81;5067477;28;20028;-70
2023/10/02 07:01:19;;;;;;;4.78;2.30;;;;;;;23.64;29.60;95527.91;5066596;28;20080;-70
2023/10/02 07:03:51;;;;;;;7.05;2.72;;;;;;;23.50;30.02;95531.47;5086272;28;20473;-72
2023/10/02 07:06:20;;;;;;;7.20;2.60;;;;;;;22.58;31.16;95526.75;5076139;28;20047;-72
2023/10/02 07:09:09;;;;;;;6.40;2.58;;;;;;;22.29;32.09;95530.25;5070465;28;20077;-72
2023/10/02 07:11:35;;;;;;;6.00;2.65;;;;;;;21.85;32.71;95529.16;5066555;28;20040;-69
2023/10/02 07:14:03;;;;;;;6.43;2.70;;;;;;;21.48;33.36;95526.47;5078382;28;20024;-70
2023/10/02 07:16:29;;;;;;;5.60;2.70;;;;;;;20.80;34.64;95523.59;5089207;28;20036;-69
2023/10/02 07:18:58;;;;;;;6.40;2.83;;;;;;;20.54;35.41;95521.25;5090407;28;20051;-69
2023/10/02 07:21:26;;;;;;;8.48;2.88;;;;;;;20.57;35.30;95525.38;5091478;28;20111;-69
2023/10/02 07:23:51;;;;;;;5.13;2.58;;;;;;;20.30;36.20;95522.13;5092026;28;20027;-69
2023/10/02 07:26:19;;;;;;;8.13;2.55;;;;;;;20.70;35.30;95517.72;5080111;28;20032;-69
2023/10/02 07:28:50;;;;;;;6.90;2.92;;;;;;;20.60;36.17;95520.56;5087811;28;20545;-70
2023/10/02 07:31:20;;;;;;;4.72;2.47;;;;;;;20.69;35.25;95522.16;5067806;28;20032;-68
2023/10/02 07:33:45;;;;;;;6.10;2.80;;;;;;;20.72;36.41;95518.34;5056470;28;20549;-69
2023/10/02 07:36:14;;;;;;;7.40;2.63;;;;;;;20.98;35.42;95518.06;5055831;28;20040;-68
2023/10/02 07:38:42;;;;;;;6.25;3.03;;;;;;;21.10;35.58;95529.88;5090265;28;20020;-69
2023/10/02 07:41:14;;;;;;;6.97;2.83;;;;;;;20.88;35.17;95530.66;5092507;28;20028;-68
2023/10/02 07:43:40;;;;;;;6.22;2.60;;;;;;;20.30;35.59;95533.50;5087236;28;20458;-69
2023/10/02 07:46:14;;;;;;;5.07;2.55;;;;;;;20.29;35.88;95523.94;5091257;28;20032;-69
2023/10/02 07:48:55;;;;;;;5.35;2.65;;;;;;;20.17;36.41;95516.53;5083613;28;20020;-69
2023/10/02 07:51:21;;;;;;;6.10;2.92;;;;;;;20.25;36.83;95529.72;5089532;28;20028;-69
2023/10/02 07:53:48;;;;;;;5.57;2.92;;;;;;;19.96;36.05;95496.84;5078199;28;20504;-69
2023/10/02 07:56:16;;;;;;;5.32;2.60;;;;;;;19.80;36.91;95534.59;5081623;28;20199;-68
2023/10/02 07:58:43;;;;;;;5.57;2.85;;;;;;;20.21;37.56;95504.69;5083455;28;20535;-69
2023/10/02 08:01:11;;;;;;;6.35;3.30;;;;;;;20.01;36.48;95520.88;5083694;28;20047;-69
2023/10/02 08:03:43;;;;;;;5.85;2.72;;;;;;;20.05;37.03;95514.28;5080973;28;20016;-69
2023/10/02 08:11:41;;;;;;;7.32;2.75;;;;;;;19.52;36.76;95520.91;5077183;28;20086;-69
2023/10/02 08:14:15;;;;;;;8.10;3.30;;;;;;;19.77;37.85;95534.91;5083928;28;20032;-69
2023/10/02 08:16:58;;;;;;;6.50;2.92;;;;;;;19.73;37.47;95522.25;5062927;28;20486;-69
2023/10/02 08:19:24;;;;;;;8.30;2.60;;;;;;;19.69;37.09;95531.47;5084864;28;20028;-69
2023/10/02 08:21:49;;;;;;;6.75;2.80;;;;;;;19.78;37.55;95536.59;5089062;28;20023;-69
2023/10/02 08:24:15;;;;;;;5.78;2.72;;;;;;;19.71;37.68;95519.78;5077969;28;20028;-69
2023/10/02 08:26:43;;;;;;;8.48;2.90;;;;;;;19.86;37.08;95526.03;5084522;28;20481;-69
2023/10/02 08:29:15;;;;;;;5.35;2.72;;;;;;;19.89;36.74;95531.94;5078619;28;20043;-68
2023/10/02 08:31:48;;;;;;;6.32;2.90;;;;;;;19.84;37.14;95519.28;5080258;28;20028;-68
2023/10/02 08:34:19;;;;;;;4.88;2.70;;;;;;;19.94;37.36;95535.72;5062734;28;20426;-70
2023/10/02 08:36:48;;;;;;;;;;;;;;;19.61;37.73;95529.63;5069259;28;20083;-70
2023/10/02 08:39:21;;;;;;;6.18;2.65;;;;;;;19.37;38.00;95530.47;5074897;28;20243;-70
2023/10/02 08:41:50;;;;;;;5.65;2.80;;;;;;;19.55;38.37;95533.75;5076759;28;20083;-70
2023/10/02 08:44:16;;;;;;;7.40;2.75;;;;;;;19.36;38.04;95536.69;5071955;28;20020;-70
2023/10/02 08:46:43;;;;;;;5.60;3.03;;;;;;;19.39;37.86;95531.13;5074567;28;20042;-70
2023/10/02 08:49:16;;;;;;;6.25;2.90;;;;;;;19.64;38.34;95521.41;5090339;28;20032;-70
2023/10/02 08:51:51;;;;;;;8.25;3.00;;;;;;;19.74;37.88;95526.53;5087673;28;20028;-70
2023/10/02 08:54:27;;;;;;;7.78;3.00;;;;;;;19.77;37.92;95524.38;5057088;28;20031;-70
2023/10/02 08:57:06;;;;;;;5.55;2.90;;;;;;;19.78;38.46;95522.56;5088133;28;20036;-70
2023/10/02 08:59:38;;;;;;;6.03;2.97;;;;;;;19.74;37.95;95522.06;5089257;28;20066;-70
2023/10/02 09:02:11;;;;;;;7.93;3.30;;;;;;;19.83;37.85;95521.06;5089383;28;20513;-70
2023/10/02 09:04:37;;;;;;;5.25;2.92;;;;;;;19.82;37.50;95513.34;5086449;28;20072;-70
2023/10/02 09:07:15;;;;;;;6.22;3.28;;;;;;;19.69;37.84;95518.28;5089534;28;20052;-70
2023/10/02 09:09:54;;;;;;;6.35;2.92;;;;;;;19.90;38.49;95525.69;5073390;28;20077;-70
2023/10/02 09:12:20;;;;;;;7.20;2.95;;;;;;;19.72;37.54;95520.59;5090374;28;20028;-70
2023/10/02 09:14:46;;;;;;;7.30;3.28;;;;;;;19.68;37.65;95516.66;5088501;28;20039;-70
2023/10/02 09:17:19;;;;;;;5.20;2.92;;;;;;;19.87;37.95;95511.03;5073179;28;20059;-70
2023/10/02 09:19:58;;;;;;;7.28;2.95;;;;;;;19.99;37.56;95514.13;5089918;28;20030;-70
2023/10/02 09:22:25;;;;;;;5.80;3.13;;;;;;;19.79;37.02;95514.50;5088441;28;20040;-70
2023/10/02 09:25:09;;;;;;;6.55;3.08;;;;;;;19.81;37.68;95509.88;5089892;28;20027;-70
2023/10/02 09:27:41;;;;;;;9.52;3.00;;;;;;;19.83;36.95;95499.16;5091524;28;20039;-70
2023/10/02 09:30:21;;;;;;;5.88;2.97;;;;;;;19.63;36.53;95512.66;5073896;28;20431;-70
2023/10/02 09:32:51;;;;;;;5.95;3.05;;;;;;;19.51;37.25;95500.81;5088760;28;20119;-70
2023/10/02 09:35:29;;;;;;;5.88;3.00;;;;;;;19.51;37.30;95513.19;5089701;28;20486;-70
2023/10/02 09:38:06;;;;;;;7.85;3.55;;;;;;;19.39;37.37;95510.88;5090059;28;20208;-70
2023/10/02 09:40:54;;;;;;;6.38;2.95;;;;;;;19.50;37.41;95506.25;5088125;28;20020;-70
2023/10/02 09:43:24;;;;;;;6.68;3.13;;;;;;;19.42;37.59;95504.44;5075635;28;20176;-70
2023/10/02 09:45:53;;;;;;;5.82;3.10;;;;;;;19.58;37.71;95499.16;5072717;28;20035;-70
2023/10/02 09:48:56;;;;;;;5.00;2.70;;;;;;;19.49;36.87;95465.09;5073224;28;20525;-70
2023/10/02 09:51:30;;;;;;;6.05;3.10;;;;;;;19.73;36.70;95490.63;5088473;28;20379;-70
2023/10/02 09:54:05;;;;;;;5.18;3.00;;;;;;;19.86;36.75;95504.94;5090867;28;20020;-70
2023/10/02 09:57:05;;;;;;;7.43;3.28;;;;;;;20.05;36.60;95506.34;5089454;28;20093;-70
2023/10/02 09:59:45;;;;;;;5.47;3.35;;;;;;;20.16;36.42;95499.91;5087912;28;20107;-70
2023/10/02 10:02:47;;;;;;;5.65;3.15;;;;;;;20.20;36.20;95497.78;5074572;28;20097;-70
2023/10/02 10:07:52;;;;;;;6.22;3.08;;;;;;;20.35;35.14;95498.69;5091154;28;20470;-70
2023/10/02 10:13:34;;;;;;;6.30;3.28;;;;;;;19.93;35.77;95497.16;5090651;28;20054;-70
2023/10/02 10:16:20;;;;;;;8.45;3.42;;;;;;;19.86;35.42;95504.94;5089400;28;20039;-70
2023/10/02 10:19:26;;;;;;;7.70;3.17;;;;;;;19.97;35.24;95503.75;5085086;28;20029;-70
2023/10/02 10:22:00;;;;;;;6.22;3.28;;;;;;;20.09;35.12;95491.84;5070377;28;20044;-70
2023/10/02 10:24:35;;;;;;;6.13;3.20;;;;;;;20.14;35.07;95493.97;5054905;28;20107;-70
2023/10/02 10:27:03;;;;;;;5.93;3.22;;;;;;;20.01;34.73;95489.25;5080130;28;20040;-70
2023/10/02 10:29:41;;;;;;;8.20;3.15;;;;;;;20.26;34.70;95484.72;5089227;28;20066;-71
2023/10/02 10:32:25;;;;;;;8.20;3.30;;;;;;;20.30;33.88;95487.81;5074520;28;20054;-70
2023/10/02 10:35:12;;;;;;;7.05;3.05;;;;;;;20.32;33.19;95472.66;5091565;28;20036;-70
2023/10/02 10:37:46;;;;;;;7.57;3.35;;;;;;;20.27;33.75;95473.16;5058576;28;20105;-70
2023/10/02 10:40:43;;;;;;;11.20;3.67;;;;;;;20.36;33.55;95460.75;5056597;28;20029;-70
2023/10/02 10:43:05;;;;;;;5.45;3.47;;;;;;;20.46;32.57;95471.94;5072888;28;20410;-70
2023/10/02 10:45:33;;;;;;;7.80;3.20;;;;;;;20.55;32.23;95449.00;5085489;28;20405;-70
2023/10/02 10:47:58;;;;;;;8.02;3.17;;;;;;;20.48;33.17;95454.13;5094485;28;20032;-70
2023/10/02 10:50:29;;;;;;;8.90;3.50;;;;;;;20.62;32.87;95457.88;5093903;28;20482;-70
2023/10/02 10:53:25;;;;;;;7.25;3.42;;;;;;;20.72;32.43;95439.16;5075180;28;20170;-70
2023/10/02 10:55:44;;;;;;;7.47;3.20;;;;;;;20.70;32.87;95451.72;5073451;28;20043;-70
2023/10/02 10:58:10;;;;;;;7.22;3.35;;;;;;;20.79;32.49;95437.47;5055699;28;20406;-70
2023/10/02 11:00:40;;;;;;;7.20;3.72;;;;;;;20.83;31.93;95449.31;5072082;28;20114;-70
2023/10/02 11:03:08;;;;;;;7.07;3.85;;;;;;;20.79;32.60;95449.88;5084909;28;20123;-70
2023/10/02 11:05:35;;;;;;;6.03;3.05;;;;;;;20.82;32.12;95445.03;5081898;28;20405;-69
2023/10/02 11:08:25;;;;;;;7.50;3.63;;;;;;;20.68;32.41;95440.50;5089026;28;20452;-68
2023/10/02 11:11:19;;;;;;;6.38;3.58;;;;;;;20.80;32.07;95439.09;5089972;28;20108;-68
2023/10/02 11:13:53;;;;;;;6.30;3.72;;;;;;;20.69;32.33;95434.22;5080435;28;20421;-70
2023/10/02 11:16:32;;;;;;;7.25;3.80;;;;;;;20.61;33.07;95440.38;5064535;28;20050;-70
2023/10/02 11:19:23;;;;;;;8.48;4.03;;;;;;;20.49;32.33;95434.63;5081071;28;20028;-70
2023/10/02 11:22:21;;;;;;;6.50;3.60;;;;;;;20.63;32.93;95440.22;5085155;28;20067;-70
2023/10/02 11:24:53;;;;;;;10.32;3.78;;;;;;;20.88;32.91;95433.78;5081312;28;20025;-72
2023/10/02 11:27:18;;;;;;;6.57;3.42;;;;;;;20.83;33.60;95443.22;5081260;28;20036;-72
2023/10/02 11:29:45;;;;;;;6.30;3.70;;;;;;;20.89;31.74;95431.94;5076316;28;20074;-75
2023/10/02 11:32:21;;;;;;;7.45;3.72;;;;;;;20.62;32.10;95420.09;5082633;28;20459;-71
2023/10/02 11:34:51;;;;;;;5.90;3.65;;;;;;;20.62;33.27;95430.66;5069334;28;20035;-72
2023/10/02 11:37:17;;;;;;;8.52;3.95;;;;;;;20.81;33.14;95430.22;5085920;28;20405;-72
2023/10/02 11:39:44;;;;;;;7.10;3.78;;;;;;;20.87;33.43;95416.31;5090144;28;20038;-71
2023/10/02 11:42:10;;;;;;;6.45;3.58;;;;;;;20.72;33.57;95415.41;5071899;28;20044;-72
2023/10/02 11:44:35;;;;;;;9.75;4.15;;;;;;;20.63;33.58;95413.81;5085656;28;20097;-71
2023/10/02 11:47:00;;;;;;;10.25;3.67;;;;;;;20.77;33.31;95409.59;5083715;28;20071;-71
2023/10/02 11:49:39;;;;;;;8.13;4.05;;;;;;;20.96;33.48;95409.97;5085084;28;20537;-71
2023/10/02 11:52:05;;;;;;;5.88;3.60;;;;;;;20.91;34.54;95411.47;5086947;28;20040;-71
2023/10/02 11:54:39;;;;;;;6.95;3.67;;;;;;;20.62;34.50;95391.06;5069956;28;20031;-70
2023/10/02 11:57:08;;;;;;;6.07;3.83;;;;;;;21.00;34.32;95406.97;5067096;28;20044;-71
2023/10/02 11:59:37;;;;;;;8.88;4.90;;;;;;;21.12;33.84;95398.44;5082873;28;20036;-71
2023/10/02 12:02:04;;;;;;;8.43;4.22;;;;;;;21.22;34.15;95414.03;5067174;28;20032;-72
2023/10/02 12:04:30;;;;;;;7.15;4.00;;;;;;;21.19;34.30;95404.66;5074099;28;20494;-72
2023/10/02 12:06:59;;;;;;;7.30;3.95;;;;;;;21.23;33.48;95409.56;5086807;28;20114;-72
2023/10/02 12:09:25;;;;;;;6.68;3.63;;;;;;;21.27;34.46;95401.13;5069093;28;20029;-72
2023/10/02 12:11:51;;;;;;;6.95;3.63;;;;;;;21.48;33.99;95407.56;5082586;28;20032;-71
2023/10/02 12:14:16;;;;;;;7.22;3.55;;;;;;;21.30;34.35;95416.59;5084324;28;20027;-71
2023/10/02 12:16:41;;;;;;;6.40;3.67;;;;;;;21.53;33.73;95411.31;5078007;28;20485;-70
2023/10/02 12:19:10;;;;;;;6.60;3.90;;;;;;;21.44;33.81;95406.28;5074673;28;20036;-71
2023/10/02 12:21:36;;;;;;;6.68;3.53;;;;;;;21.48;33.98;95387.25;5084847;28;20028;-71
2023/10/02 12:24:03;;;;;;;6.18;3.85;;;;;;;21.28;33.75;95389.53;5064941;28;20028;-71
2023/10/02 12:26:29;;;;;;;9.90;3.97;;;;;;;21.27;34.12;95401.13;5080408;28;20036;-71
2023/10/02 12:28:54;;;;;;;6.38;3.83;;;;;;;21.36;34.41;95394.75;5083032;28;20504;-71
2023/10/02 12:31:20;;;;;;;6.20;3.72;;;;;;;21.52;34.53;95401.75;5087872;28;20490;-71
2023/10/02 12:33:52;;;;;;;8.15;4.10;;;;;;;21.39;34.35;95381.22;5088748;28;20028;-71
2023/10/02 12:36:19;;;;;;;6.22;3.70;;;;;;;21.52;34.59;95385.06;5065515;28;20052;-71
2023/10/02 12:38:45;;;;;;;8.10;4.05;;;;;;;21.58;34.75;95387.78;5073581;28;20479;-71